Portada
METAR-TAF:

METAR-TAF

Aeroports :

Cayo Coco, Cuba

latitud: 22-27-40N, longitud: 078-19-42W, altitud: 4 m

Observació

L'informe es va fer fa 28 minuts, a les 06:50 UTC
Vent 4 kt del Est/Sud-Est
Temperatura 25°C
Humitat 89%
Pressió 1014 hPa
Visibilitat: 9000 m
Escasses núvols a una alçada de 2000 ft

METAR: MUCC 210650Z 11004KT 9000 FEW020 25/23 Q1014

Hora: 03:18 (07:18 UTC)

Pronòstic

L'informe es va fer fa 2 hores i 18 minuts, a les 05:00 UTC
Pronòstic vàlid del 21 a les 06 UTC al 22 a les 06 UTC
Vent 3 kt amb direcció variable
Visibilitat: 9000 m
Núvols disperses a una alçada de 2000 ft
Evolucionant progressivament
l' 21 a les 15 UTC al 21 a les 17 UTC
Vent 10 kt del Est/Nord-Est
Evolucionant progressivament
l' 22 a les 00 UTC al 22 a les 02 UTC
Vent 3 kt amb direcció variable

TAF: MUCC 210500Z 2106/2206 VRB03KT 9000 SCT020 BECMG 2115/2117 07010KT BECMG 2200/2202 VRB03KT

Observacions i pronòstics meteorològics de més de 4000 aeroports (METAR i TAF).

Les estacions disponibles són els punts grocs i vermells al mapa.

Posi el ratolí al punt desitjat per veure el nom de l'estació.

Feu clic per veure les observacions i els pronòstics meteorològics.

Per canviar el mapa: feu clic els botons verds amb una creu de color negre per apropar; al botó verd amb un guió per allunyar la imatge; o en les fletxes verdes per a mapes adjacents.


METAR-TAF: